sensor_id;sensor_type;location;lat;lon;timestamp;pressure;altitude;pressure_sealevel;temperature;humidity
8697;BME280;4385;48.848;8.924;2023-01-29T00:01:12;98434.38;;;15.59;100.00
8697;BME280;4385;48.848;8.924;2023-01-29T00:03:38;98437.72;;;15.58;100.00
8697;BME280;4385;48.848;8.924;2023-01-29T00:06:05;98436.88;;;15.56;100.00
8697;BME280;4385;48.848;8.924;2023-01-29T00:08:37;98432.63;;;15.55;100.00
8697;BME280;4385;48.848;8.924;2023-01-29T00:11:04;98431.78;;;15.51;100.00
8697;BME280;4385;48.848;8.924;2023-01-29T00:13:30;98432.59;;;15.49;100.00
8697;BME280;4385;48.848;8.924;2023-01-29T00:15:57;98434.28;;;15.45;100.00
8697;BME280;4385;48.848;8.924;2023-01-29T00:18:23;98433.44;;;15.43;100.00
8697;BME280;4385;48.848;8.924;2023-01-29T00:20:49;98424.13;;;15.40;100.00
8697;BME280;4385;48.848;8.924;2023-01-29T00:23:15;98428.31;;;15.37;100.00
8697;BME280;4385;48.848;8.924;2023-01-29T00:25:41;98435.06;;;15.34;100.00
8697;BME280;4385;48.848;8.924;2023-01-29T00:28:06;98434.22;;;15.32;100.00
8697;BME280;4385;48.848;8.924;2023-01-29T00:30:32;98429.94;;;15.28;100.00
8697;BME280;4385;48.848;8.924;2023-01-29T00:32:57;98426.56;;;15.26;100.00
8697;BME280;4385;48.848;8.924;2023-01-29T00:35:22;98429.91;;;15.22;100.00
8697;BME280;4385;48.848;8.924;2023-01-29T00:37:48;98429.91;;;15.19;100.00
8697;BME280;4385;48.848;8.924;2023-01-29T00:40:13;98423.97;;;15.15;100.00
8697;BME280;4385;48.848;8.924;2023-01-29T00:42:38;98424.78;;;15.13;100.00
8697;BME280;4385;48.848;8.924;2023-01-29T00:45:22;98436.63;;;15.09;100.00
8697;BME280;4385;48.848;8.924;2023-01-29T00:47:47;98435.75;;;15.07;100.00
8697;BME280;4385;48.848;8.924;2023-01-29T00:50:13;98439.13;;;15.06;100.00
8697;BME280;4385;48.848;8.924;2023-01-29T00:52:39;98435.72;;;15.02;100.00
8697;BME280;4385;48.848;8.924;2023-01-29T00:55:08;98437.38;;;15.00;100.00
8697;BME280;4385;48.848;8.924;2023-01-29T00:57:35;98429.75;;;14.97;100.00
8697;BME280;4385;48.848;8.924;2023-01-29T01:00:03;98441.59;;;14.95;100.00
8697;BME280;4385;48.848;8.924;2023-01-29T01:02:29;98437.34;;;14.94;100.00
8697;BME280;4385;48.848;8.924;2023-01-29T01:05:14;98433.97;;;14.92;100.00
8697;BME280;4385;48.848;8.924;2023-01-29T01:07:46;98441.56;;;14.90;100.00
8697;BME280;4385;48.848;8.924;2023-01-29T01:10:15;98431.41;;;14.90;100.00
8697;BME280;4385;48.848;8.924;2023-01-29T01:12:52;98433.09;;;14.88;100.00
8697;BME280;4385;48.848;8.924;2023-01-29T01:15:18;98434.75;;;14.88;100.00
8697;BME280;4385;48.848;8.924;2023-01-29T01:17:43;98436.47;;;14.86;100.00
8697;BME280;4385;48.848;8.924;2023-01-29T01:20:09;98430.50;;;14.83;100.00
8697;BME280;4385;48.848;8.924;2023-01-29T01:22:35;98423.75;;;14.82;100.00
8697;BME280;4385;48.848;8.924;2023-01-29T01:25:00;98416.09;;;14.79;100.00
8697;BME280;4385;48.848;8.924;2023-01-29T01:27:26;98429.59;;;14.78;100.00
8697;BME280;4385;48.848;8.924;2023-01-29T01:29:51;98421.13;;;14.76;100.00
8697;BME280;4385;48.848;8.924;2023-01-29T01:32:16;98427.88;;;14.74;100.00
8697;BME280;4385;48.848;8.924;2023-01-29T01:34:42;98435.47;;;14.73;100.00
8697;BME280;4385;48.848;8.924;2023-01-29T01:37:09;98435.44;;;14.69;100.00
8697;BME280;4385;48.848;8.924;2023-01-29T01:39:35;98439.66;;;14.69;100.00
8697;BME280;4385;48.848;8.924;2023-01-29T01:42:00;98440.50;;;14.66;100.00
8697;BME280;4385;48.848;8.924;2023-01-29T01:44:52;98431.19;;;14.64;100.00
8697;BME280;4385;48.848;8.924;2023-01-29T01:47:32;98430.31;;;14.62;100.00
8697;BME280;4385;48.848;8.924;2023-01-29T01:50:03;98431.97;;;14.59;100.00
8697;BME280;4385;48.848;8.924;2023-01-29T01:52:35;98429.41;;;14.56;100.00
8697;BME280;4385;48.848;8.924;2023-01-29T01:55:03;98430.25;;;14.55;100.00
8697;BME280;4385;48.848;8.924;2023-01-29T01:57:29;98424.31;;;14.53;100.00
8697;BME280;4385;48.848;8.924;2023-01-29T02:00:14;98422.63;;;14.52;100.00
8697;BME280;4385;48.848;8.924;2023-01-29T02:02:42;98420.91;;;14.51;100.00
8697;BME280;4385;48.848;8.924;2023-01-29T02:05:28;98414.97;;;14.49;100.00
8697;BME280;4385;48.848;8.924;2023-01-29T02:08:14;98417.47;;;14.46;100.00
8697;BME280;4385;48.848;8.924;2023-01-29T02:10:59;98431.84;;;14.45;100.00
8697;BME280;4385;48.848;8.924;2023-01-29T02:13:25;98434.38;;;14.44;100.00
8697;BME280;4385;48.848;8.924;2023-01-29T02:15:50;98430.16;;;14.44;100.00
8697;BME280;4385;48.848;8.924;2023-01-29T02:18:18;98424.19;;;14.42;100.00
8697;BME280;4385;48.848;8.924;2023-01-29T02:23:57;98431.81;;;14.41;100.00
8697;BME280;4385;48.848;8.924;2023-01-29T02:29:21;98440.25;;;14.40;100.00
8697;BME280;4385;48.848;8.924;2023-01-29T02:35:09;98431.75;;;14.34;100.00
8697;BME280;4385;48.848;8.924;2023-01-29T02:38:03;98430.06;;;14.33;100.00
8697;BME280;4385;48.848;8.924;2023-01-29T02:40:55;98429.19;;;14.31;100.00
8697;BME280;4385;48.848;8.924;2023-01-29T02:43:32;98428.34;;;14.29;100.00
8697;BME280;4385;48.848;8.924;2023-01-29T02:48:51;98421.53;;;14.27;100.00
8697;BME280;4385;48.848;8.924;2023-01-29T02:51:42;98417.28;;;14.24;100.00
8697;BME280;4385;48.848;8.924;2023-01-29T02:54:24;98428.28;;;14.23;100.00
8697;BME280;4385;48.848;8.924;2023-01-29T02:56:57;98422.31;;;14.21;100.00
8697;BME280;4385;48.848;8.924;2023-01-29T02:59:28;98423.97;;;14.19;100.00
8697;BME280;4385;48.848;8.924;2023-01-29T03:02:01;98420.59;;;14.17;100.00
8697;BME280;4385;48.848;8.924;2023-01-29T03:04:35;98423.94;;;14.14;100.00
8697;BME280;4385;48.848;8.924;2023-01-29T03:07:09;98421.38;;;14.13;100.00
8697;BME280;4385;48.848;8.924;2023-01-29T03:09:50;98423.91;;;14.13;100.00
8697;BME280;4385;48.848;8.924;2023-01-29T03:12:24;98422.22;;;14.12;100.00
8697;BME280;4385;48.848;8.924;2023-01-29T03:15:01;98416.28;;;14.09;100.00
8697;BME280;4385;48.848;8.924;2023-01-29T03:18:04;98421.34;;;14.08;100.00
8697;BME280;4385;48.848;8.924;2023-01-29T03:20:34;98428.91;;;14.06;100.00
8697;BME280;4385;48.848;8.924;2023-01-29T03:23:05;98423.03;;;14.06;100.00
8697;BME280;4385;48.848;8.924;2023-01-29T03:25:33;98417.09;;;14.05;100.00
8697;BME280;4385;48.848;8.924;2023-01-29T03:28:19;98420.47;;;14.04;100.00
8697;BME280;4385;48.848;8.924;2023-01-29T03:31:07;98420.47;;;14.04;100.00
8697;BME280;4385;48.848;8.924;2023-01-29T03:34:08;98417.91;;;14.03;100.00
8697;BME280;4385;48.848;8.924;2023-01-29T03:36:45;98414.53;;;14.02;100.00
8697;BME280;4385;48.848;8.924;2023-01-29T03:39:15;98411.97;;;14.01;100.00
8697;BME280;4385;48.848;8.924;2023-01-29T03:41:43;98415.38;;;14.01;100.00
8697;BME280;4385;48.848;8.924;2023-01-29T03:46:58;98416.19;;;14.00;100.00
8697;BME280;4385;48.848;8.924;2023-01-29T03:52:17;98422.91;;;13.96;100.00
8697;BME280;4385;48.848;8.924;2023-01-29T03:54:47;98416.97;;;13.94;100.00
8697;BME280;4385;48.848;8.924;2023-01-29T03:57:30;98417.81;;;13.92;100.00
8697;BME280;4385;48.848;8.924;2023-01-29T04:00:10;98407.66;;;13.90;100.00
8697;BME280;4385;48.848;8.924;2023-01-29T04:05:39;98417.78;;;13.89;100.00
8697;BME280;4385;48.848;8.924;2023-01-29T04:08:10;98417.75;;;13.87;100.00
8697;BME280;4385;48.848;8.924;2023-01-29T04:10:40;98416.88;;;13.85;100.00
8697;BME280;4385;48.848;8.924;2023-01-29T04:13:09;98414.34;;;13.85;100.00
8697;BME280;4385;48.848;8.924;2023-01-29T04:15:41;98410.94;;;13.84;100.00
8697;BME280;4385;48.848;8.924;2023-01-29T04:18:08;98418.53;;;13.84;100.00
8697;BME280;4385;48.848;8.924;2023-01-29T04:20:34;98414.34;;;13.85;100.00
8697;BME280;4385;48.848;8.924;2023-01-29T04:22:59;98421.94;;;13.85;100.00
8697;BME280;4385;48.848;8.924;2023-01-29T04:25:28;98422.78;;;13.84;100.00
8697;BME280;4385;48.848;8.924;2023-01-29T04:28:12;98427.00;;;13.83;100.00
8697;BME280;4385;48.848;8.924;2023-01-29T04:30:49;98431.19;;;13.83;100.00
8697;BME280;4385;48.848;8.924;2023-01-29T04:33:40;98421.03;;;13.81;100.00
8697;BME280;4385;48.848;8.924;2023-01-29T04:36:27;98417.69;;;13.81;100.00
8697;BME280;4385;48.848;8.924;2023-01-29T04:42:00;98418.47;;;13.78;100.00
8697;BME280;4385;48.848;8.924;2023-01-29T04:44:59;98419.31;;;13.77;100.00
8697;BME280;4385;48.848;8.924;2023-01-29T04:50:26;98415.88;;;13.74;100.00
8697;BME280;4385;48.848;8.924;2023-01-29T04:55:49;98411.63;;;13.71;100.00
8697;BME280;4385;48.848;8.924;2023-01-29T04:58:32;98412.44;;;13.67;100.00
8697;BME280;4385;48.848;8.924;2023-01-29T05:01:01;98413.25;;;13.66;100.00
8697;BME280;4385;48.848;8.924;2023-01-29T05:03:30;98415.78;;;13.64;100.00
8697;BME280;4385;48.848;8.924;2023-01-29T05:05:57;98413.22;;;13.63;100.00
8697;BME280;4385;48.848;8.924;2023-01-29T05:08:26;98398.88;;;13.62;100.00
8697;BME280;4385;48.848;8.924;2023-01-29T05:10:54;98406.47;;;13.62;100.00
8697;BME280;4385;48.848;8.924;2023-01-29T05:13:22;98408.97;;;13.60;100.00
8697;BME280;4385;48.848;8.924;2023-01-29T05:16:00;98413.19;;;13.59;100.00
8697;BME280;4385;48.848;8.924;2023-01-29T05:18:28;98405.56;;;13.58;100.00
8697;BME280;4385;48.848;8.924;2023-01-29T05:20:55;98421.63;;;13.58;100.00
8697;BME280;4385;48.848;8.924;2023-01-29T05:23:22;98424.16;;;13.58;100.00
8697;BME280;4385;48.848;8.924;2023-01-29T05:25:48;98428.38;;;13.59;100.00
8697;BME280;4385;48.848;8.924;2023-01-29T05:28:14;98439.34;;;13.58;100.00
8697;BME280;4385;48.848;8.924;2023-01-29T05:30:44;98436.81;;;13.57;100.00
8697;BME280;4385;48.848;8.924;2023-01-29T05:35:39;98419.06;;;13.57;100.00
8697;BME280;4385;48.848;8.924;2023-01-29T05:38:05;98421.63;;;13.58;100.00
8697;BME280;4385;48.848;8.924;2023-01-29T05:40:30;98422.50;;;13.61;100.00
8697;BME280;4385;48.848;8.924;2023-01-29T05:42:56;98420.84;;;13.64;100.00
8697;BME280;4385;48.848;8.924;2023-01-29T05:45:21;98398.06;;;13.66;100.00
8697;BME280;4385;48.848;8.924;2023-01-29T05:47:46;98381.22;;;13.68;100.00
8697;BME280;4385;48.848;8.924;2023-01-29T05:50:12;98374.50;;;13.70;100.00
8697;BME280;4385;48.848;8.924;2023-01-29T05:52:38;98376.19;;;13.71;100.00
8697;BME280;4385;48.848;8.924;2023-01-29T05:55:04;98382.94;;;13.72;100.00
8697;BME280;4385;48.848;8.924;2023-01-29T05:57:29;98397.31;;;13.73;100.00
8697;BME280;4385;48.848;8.924;2023-01-29T05:59:55;98398.13;;;13.72;100.00
8697;BME280;4385;48.848;8.924;2023-01-29T06:02:20;98404.03;;;13.71;100.00
8697;BME280;4385;48.848;8.924;2023-01-29T06:04:45;98390.50;;;13.69;100.00
8697;BME280;4385;48.848;8.924;2023-01-29T06:07:11;98388.81;;;13.68;100.00
8697;BME280;4385;48.848;8.924;2023-01-29T06:09:36;98392.19;;;13.67;100.00
8697;BME280;4385;48.848;8.924;2023-01-29T06:12:01;98393.84;;;13.66;100.00
8697;BME280;4385;48.848;8.924;2023-01-29T06:14:27;98391.31;;;13.65;100.00
8697;BME280;4385;48.848;8.924;2023-01-29T06:16:52;98392.16;;;13.64;100.00
8697;BME280;4385;48.848;8.924;2023-01-29T06:19:17;98400.56;;;13.63;100.00
8697;BME280;4385;48.848;8.924;2023-01-29T06:21:44;98402.25;;;13.62;100.00
8697;BME280;4385;48.848;8.924;2023-01-29T06:24:10;98391.25;;;13.62;100.00
8697;BME280;4385;48.848;8.924;2023-01-29T06:26:35;98403.94;;;13.62;100.00
8697;BME280;4385;48.848;8.924;2023-01-29T06:29:00;98414.03;;;13.60;100.00
8697;BME280;4385;48.848;8.924;2023-01-29T06:31:26;98408.13;;;13.59;100.00
8697;BME280;4385;48.848;8.924;2023-01-29T06:33:51;98410.66;;;13.59;100.00
8697;BME280;4385;48.848;8.924;2023-01-29T06:36:16;98413.19;;;13.59;100.00
8697;BME280;4385;48.848;8.924;2023-01-29T06:38:42;98402.25;;;13.61;100.00
8697;BME280;4385;48.848;8.924;2023-01-29T06:41:09;98401.44;;;13.65;100.00
8697;BME280;4385;48.848;8.924;2023-01-29T06:43:35;98404.00;;;13.66;100.00
8697;BME280;4385;48.848;8.924;2023-01-29T06:46:00;98404.00;;;13.68;100.00
8697;BME280;4385;48.848;8.924;2023-01-29T06:48:25;98409.97;;;13.71;100.00
8697;BME280;4385;48.848;8.924;2023-01-29T06:50:51;98404.09;;;13.76;100.00
8697;BME280;4385;48.848;8.924;2023-01-29T06:53:19;98406.69;;;13.80;100.00
8697;BME280;4385;48.848;8.924;2023-01-29T06:55:51;98415.19;;;13.86;100.00
8697;BME280;4385;48.848;8.924;2023-01-29T06:58:17;98419.44;;;13.88;100.00
8697;BME280;4385;48.848;8.924;2023-01-29T07:00:42;98420.34;;;13.92;100.00
8697;BME280;4385;48.848;8.924;2023-01-29T07:03:08;98411.94;;;13.96;100.00
8697;BME280;4385;48.848;8.924;2023-01-29T07:05:34;98412.81;;;14.00;100.00
8697;BME280;4385;48.848;8.924;2023-01-29T07:08:00;98419.63;;;14.04;100.00
8697;BME280;4385;48.848;8.924;2023-01-29T07:10:25;98410.38;;;14.07;100.00
8697;BME280;4385;48.848;8.924;2023-01-29T07:12:50;98406.13;;;14.08;100.00
8697;BME280;4385;48.848;8.924;2023-01-29T07:15:16;98407.00;;;14.10;100.00
8697;BME280;4385;48.848;8.924;2023-01-29T07:18:00;98412.94;;;14.12;100.00
8697;BME280;4385;48.848;8.924;2023-01-29T07:20:29;98413.78;;;14.13;100.00
8697;BME280;4385;48.848;8.924;2023-01-29T07:22:57;98415.50;;;14.14;100.00
8697;BME280;4385;48.848;8.924;2023-01-29T07:25:24;98421.44;;;14.19;100.00
8697;BME280;4385;48.848;8.924;2023-01-29T07:27:49;98433.34;;;14.23;100.00
8697;BME280;4385;48.848;8.924;2023-01-29T07:30:15;98440.13;;;14.26;100.00
8697;BME280;4385;48.848;8.924;2023-01-29T07:32:41;98442.66;;;14.27;100.00
8697;BME280;4385;48.848;8.924;2023-01-29T07:35:07;98441.03;;;14.32;100.00
8697;BME280;4385;48.848;8.924;2023-01-29T07:37:32;98435.19;;;14.40;100.00
8697;BME280;4385;48.848;8.924;2023-01-29T07:39:58;98446.22;;;14.45;100.00
8697;BME280;4385;48.848;8.924;2023-01-29T07:42:23;98439.50;;;14.50;100.00
8697;BME280;4385;48.848;8.924;2023-01-29T07:44:48;98438.72;;;14.56;100.00
8697;BME280;4385;48.848;8.924;2023-01-29T07:47:14;98441.31;;;14.62;100.00
8697;BME280;4385;48.848;8.924;2023-01-29T07:49:39;98451.50;;;14.67;100.00
8697;BME280;4385;48.848;8.924;2023-01-29T07:52:04;98448.13;;;14.71;100.00
8697;BME280;4385;48.848;8.924;2023-01-29T07:54:30;98457.50;;;14.78;100.00
8697;BME280;4385;48.848;8.924;2023-01-29T07:56:55;98460.97;;;14.83;100.00
8697;BME280;4385;48.848;8.924;2023-01-29T07:59:20;98457.63;;;14.89;100.00
8697;BME280;4385;48.848;8.924;2023-01-29T08:01:46;98456.84;;;14.95;100.00
8697;BME280;4385;48.848;8.924;2023-01-29T08:04:11;98456.03;;;15.02;100.00
8697;BME280;4385;48.848;8.924;2023-01-29T08:06:36;98450.13;;;15.06;100.00
8697;BME280;4385;48.848;8.924;2023-01-29T08:09:02;98460.31;;;15.09;100.00
8697;BME280;4385;48.848;8.924;2023-01-29T08:11:28;98471.34;;;15.13;100.00
8697;BME280;4385;48.848;8.924;2023-01-29T08:13:53;98475.56;;;15.16;100.00
8697;BME280;4385;48.848;8.924;2023-01-29T08:16:19;98478.13;;;15.17;100.00
8697;BME280;4385;48.848;8.924;2023-01-29T08:18:44;98468.84;;;15.21;100.00
8697;BME280;4385;48.848;8.924;2023-01-29T08:21:12;98472.25;;;15.23;100.00
8697;BME280;4385;48.848;8.924;2023-01-29T08:23:37;98472.25;;;15.23;100.00
8697;BME280;4385;48.848;8.924;2023-01-29T08:26:03;98471.41;;;15.23;100.00
8697;BME280;4385;48.848;8.924;2023-01-29T08:28:28;98468.84;;;15.21;100.00
8697;BME280;4385;48.848;8.924;2023-01-29T08:30:54;98475.59;;;15.19;100.00
8697;BME280;4385;48.848;8.924;2023-01-29T08:33:19;98479.81;;;15.15;100.00
8697;BME280;4385;48.848;8.924;2023-01-29T08:35:48;98476.44;;;15.15;100.00
8697;BME280;4385;48.848;8.924;2023-01-29T08:38:14;98481.50;;;15.15;100.00
8697;BME280;4385;48.848;8.924;2023-01-29T08:40:40;98477.31;;;15.17;100.00
8697;BME280;4385;48.848;8.924;2023-01-29T08:43:06;98479.84;;;15.18;100.00
8697;BME280;4385;48.848;8.924;2023-01-29T08:45:34;98481.53;;;15.19;100.00
8697;BME280;4385;48.848;8.924;2023-01-29T08:48:00;98479.03;;;15.23;100.00
8697;BME280;4385;48.848;8.924;2023-01-29T08:50:26;98480.69;;;15.22;100.00
8697;BME280;4385;48.848;8.924;2023-01-29T08:52:56;98476.47;;;15.23;100.00
8697;BME280;4385;48.848;8.924;2023-01-29T08:55:21;98475.63;;;15.22;100.00
8697;BME280;4385;48.848;8.924;2023-01-29T08:57:47;98476.50;;;15.24;100.00
8697;BME280;4385;48.848;8.924;2023-01-29T09:00:13;98478.19;;;15.25;100.00
8697;BME280;4385;48.848;8.924;2023-01-29T09:02:39;98471.44;;;15.26;100.00
8697;BME280;4385;48.848;8.924;2023-01-29T09:05:04;98479.91;;;15.26;100.00
8697;BME280;4385;48.848;8.924;2023-01-29T09:07:30;98483.28;;;15.28;100.00
8697;BME280;4385;48.848;8.924;2023-01-29T09:09:55;98492.63;;;15.29;100.00
8697;BME280;4385;48.848;8.924;2023-01-29T09:12:20;98495.16;;;15.29;100.00
8697;BME280;4385;48.848;8.924;2023-01-29T09:14:45;98488.38;;;15.30;100.00
8697;BME280;4385;48.848;8.924;2023-01-29T09:17:11;98495.16;;;15.29;100.00
8697;BME280;4385;48.848;8.924;2023-01-29T09:19:36;98490.91;;;15.28;100.00
8697;BME280;4385;48.848;8.924;2023-01-29T09:22:01;98490.88;;;15.27;100.00
8697;BME280;4385;48.848;8.924;2023-01-29T09:24:26;98493.44;;;15.27;100.00
8697;BME280;4385;48.848;8.924;2023-01-29T09:26:52;98490.06;;;15.26;100.00
8697;BME280;4385;48.848;8.924;2023-01-29T09:29:17;98494.28;;;15.24;100.00
8697;BME280;4385;48.848;8.924;2023-01-29T09:31:42;98497.66;;;15.23;100.00
8697;BME280;4385;48.848;8.924;2023-01-29T09:34:08;98501.88;;;15.21;100.00
8697;BME280;4385;48.848;8.924;2023-01-29T09:36:33;98498.47;;;15.20;100.00
8697;BME280;4385;48.848;8.924;2023-01-29T09:38:58;98487.47;;;15.20;100.00
8697;BME280;4385;48.848;8.924;2023-01-29T09:41:47;98483.22;;;15.17;100.00
8697;BME280;4385;48.848;8.924;2023-01-29T09:46:55;98453.59;;;15.18;100.00
8697;BME280;4385;48.848;8.924;2023-01-29T09:49:28;98455.31;;;15.22;100.00
8697;BME280;4385;48.848;8.924;2023-01-29T09:52:00;98450.25;;;15.25;100.00
8697;BME280;4385;48.848;8.924;2023-01-29T09:54:34;98441.84;;;15.29;100.00
8697;BME280;4385;48.848;8.924;2023-01-29T09:57:09;98439.31;;;15.36;100.00
8697;BME280;4385;48.848;8.924;2023-01-29T09:59:36;98430.88;;;15.41;100.00
8697;BME280;4385;48.848;8.924;2023-01-29T10:02:19;98418.19;;;15.46;100.00
8697;BME280;4385;48.848;8.924;2023-01-29T10:05:02;98415.69;;;15.51;100.00
8697;BME280;4385;48.848;8.924;2023-01-29T10:07:59;98414.00;;;15.53;100.00
8697;BME280;4385;48.848;8.924;2023-01-29T10:10:48;98414.84;;;15.56;100.00
8697;BME280;4385;48.848;8.924;2023-01-29T10:13:28;98420.81;;;15.60;100.00
8697;BME280;4385;48.848;8.924;2023-01-29T10:16:24;98428.44;;;15.62;100.00
8697;BME280;4385;48.848;8.924;2023-01-29T10:19:01;98425.91;;;15.63;100.00
8697;BME280;4385;48.848;8.924;2023-01-29T10:24:37;98424.22;;;15.61;100.00
8697;BME280;4385;48.848;8.924;2023-01-29T10:27:16;98430.09;;;15.59;100.00
8697;BME280;4385;48.848;8.924;2023-01-29T10:29:43;98435.19;;;15.56;100.00
8697;BME280;4385;48.848;8.924;2023-01-29T10:32:15;98429.25;;;15.54;100.00
8697;BME280;4385;48.848;8.924;2023-01-29T10:34:48;98435.16;;;15.53;100.00
8697;BME280;4385;48.848;8.924;2023-01-29T10:37:18;98433.47;;;15.52;100.00
8697;BME280;4385;48.848;8.924;2023-01-29T10:39:47;98433.47;;;15.51;100.00
8697;BME280;4385;48.848;8.924;2023-01-29T10:42:36;98424.16;;;15.50;100.00
8697;BME280;4385;48.848;8.924;2023-01-29T10:48:02;98425.84;;;15.51;100.00
8697;BME280;4385;48.848;8.924;2023-01-29T10:50:51;98433.47;;;15.52;100.00
8697;BME280;4385;48.848;8.924;2023-01-29T10:58:53;98427.56;;;15.55;100.00
8697;BME280;4385;48.848;8.924;2023-01-29T11:01:19;98425.88;;;15.57;100.00
8697;BME280;4385;48.848;8.924;2023-01-29T11:03:44;98430.97;;;15.58;100.00
8697;BME280;4385;48.848;8.924;2023-01-29T11:06:33;98433.50;;;15.58;100.00
8697;BME280;4385;48.848;8.924;2023-01-29T11:09:23;98433.50;;;15.58;100.00
8697;BME280;4385;48.848;8.924;2023-01-29T11:12:00;98430.97;;;15.57;100.00
8697;BME280;4385;48.848;8.924;2023-01-29T11:14:43;98428.44;;;15.58;100.00
8697;BME280;4385;48.848;8.924;2023-01-29T11:17:17;98424.19;;;15.59;100.00
8697;BME280;4385;48.848;8.924;2023-01-29T11:19:45;98414.84;;;15.56;100.00
8697;BME280;4385;48.848;8.924;2023-01-29T11:22:13;98413.16;;;15.55;100.00
8697;BME280;4385;48.848;8.924;2023-01-29T11:24:39;98403.00;;;15.55;100.00
8697;BME280;4385;48.848;8.924;2023-01-29T11:27:13;98389.44;;;15.56;100.00
8697;BME280;4385;48.848;8.924;2023-01-29T11:29:42;98388.63;;;15.56;100.00
8697;BME280;4385;48.848;8.924;2023-01-29T11:32:29;98384.34;;;15.53;100.00
8697;BME280;4385;48.848;8.924;2023-01-29T11:37:21;98383.50;;;15.50;100.00
8697;BME280;4385;48.848;8.924;2023-01-29T11:39:48;98380.97;;;15.48;100.00
8697;BME280;4385;48.848;8.924;2023-01-29T11:42:21;98387.72;;;15.46;100.00
8697;BME280;4385;48.848;8.924;2023-01-29T11:44:47;98387.72;;;15.46;100.00
8697;BME280;4385;48.848;8.924;2023-01-29T11:47:20;98375.88;;;15.45;100.00
8697;BME280;4385;48.848;8.924;2023-01-29T11:49:54;98382.63;;;15.46;100.00
8697;BME280;4385;48.848;8.924;2023-01-29T11:52:32;98375.88;;;15.45;100.00
8697;BME280;4385;48.848;8.924;2023-01-29T11:57:46;98358.94;;;15.47;100.00
8697;BME280;4385;48.848;8.924;2023-01-29T12:00:24;98363.19;;;15.48;100.00
8697;BME280;4385;48.848;8.924;2023-01-29T12:03:14;98358.94;;;15.50;100.00
8697;BME280;4385;48.848;8.924;2023-01-29T12:08:35;98340.34;;;15.51;100.00
8697;BME280;4385;48.848;8.924;2023-01-29T12:11:13;98341.16;;;15.52;100.00
8697;BME280;4385;48.848;8.924;2023-01-29T12:13:41;98333.53;;;15.53;100.00
8697;BME280;4385;48.848;8.924;2023-01-29T12:16:18;98327.63;;;15.53;100.00
8697;BME280;4385;48.848;8.924;2023-01-29T12:18:50;98316.63;;;15.52;100.00
8697;BME280;4385;48.848;8.924;2023-01-29T12:21:25;98313.22;;;15.50;100.00
8697;BME280;4385;48.848;8.924;2023-01-29T12:24:11;98309.84;;;15.51;100.00
8697;BME280;4385;48.848;8.924;2023-01-29T12:26:46;98305.59;;;15.53;100.00
8697;BME280;4385;48.848;8.924;2023-01-29T12:29:32;98297.16;;;15.53;100.00
8697;BME280;4385;48.848;8.924;2023-01-29T12:40:17;98292.06;;;15.50;100.00
8697;BME280;4385;48.848;8.924;2023-01-29T12:42:48;98274.28;;;15.51;100.00
8697;BME280;4385;48.848;8.924;2023-01-29T12:45:17;98273.44;;;15.54;100.00
8697;BME280;4385;48.848;8.924;2023-01-29T12:47:48;98272.59;;;15.56;100.00
8697;BME280;4385;48.848;8.924;2023-01-29T12:50:17;98273.44;;;15.62;100.00
8697;BME280;4385;48.848;8.924;2023-01-29T12:52:51;98260.75;;;15.68;100.00
8697;BME280;4385;48.848;8.924;2023-01-29T12:55:21;98254.00;;;15.73;100.00
8697;BME280;4385;48.848;8.924;2023-01-29T12:57:55;98241.28;;;15.76;100.00
8697;BME280;4385;48.848;8.924;2023-01-29T13:00:33;98239.59;;;15.80;100.00
8697;BME280;4385;48.848;8.924;2023-01-29T13:03:13;98248.06;;;15.85;100.00
8697;BME280;4385;48.848;8.924;2023-01-29T13:06:01;98243.84;;;15.86;100.00
8697;BME280;4385;48.848;8.924;2023-01-29T13:08:37;98240.44;;;15.88;100.00
8697;BME280;4385;48.848;8.924;2023-01-29T13:11:24;98241.31;;;15.86;100.00
8697;BME280;4385;48.848;8.924;2023-01-29T13:14:00;98239.59;;;15.86;100.00
8697;BME280;4385;48.848;8.924;2023-01-29T13:16:32;98227.75;;;15.83;100.00
8697;BME280;4385;48.848;8.924;2023-01-29T13:19:05;98231.97;;;15.84;100.00
8697;BME280;4385;48.848;8.924;2023-01-29T13:21:36;98230.28;;;15.83;100.00
8697;BME280;4385;48.848;8.924;2023-01-29T13:24:10;98229.41;;;15.81;100.00
8697;BME280;4385;48.848;8.924;2023-01-29T13:26:37;98225.19;;;15.80;100.00
8697;BME280;4385;48.848;8.924;2023-01-29T13:29:03;98237.03;;;15.78;100.00
8697;BME280;4385;48.848;8.924;2023-01-29T13:31:33;98235.34;;;15.77;100.00
8697;BME280;4385;48.848;8.924;2023-01-29T13:34:02;98240.44;;;15.77;100.00
8697;BME280;4385;48.848;8.924;2023-01-29T13:36:30;98251.47;;;15.76;100.00
8697;BME280;4385;48.848;8.924;2023-01-29T13:39:03;98244.66;;;15.75;100.00
8697;BME280;4385;48.848;8.924;2023-01-29T13:41:40;98255.69;;;15.74;100.00
8697;BME280;4385;48.848;8.924;2023-01-29T13:44:27;98251.47;;;15.73;100.00
8697;BME280;4385;48.848;8.924;2023-01-29T13:47:05;98244.66;;;15.72;100.00
8697;BME280;4385;48.848;8.924;2023-01-29T13:49:43;98241.28;;;15.71;100.00
8697;BME280;4385;48.848;8.924;2023-01-29T13:54:51;98247.19;;;15.72;100.00
8697;BME280;4385;48.848;8.924;2023-01-29T13:59:57;98242.13;;;15.72;100.00
8697;BME280;4385;48.848;8.924;2023-01-29T14:02:25;98245.50;;;15.73;100.00
8697;BME280;4385;48.848;8.924;2023-01-29T14:07:53;98240.44;;;15.71;100.00
8697;BME280;4385;48.848;8.924;2023-01-29T14:10:21;98247.19;;;15.70;100.00
8697;BME280;4385;48.848;8.924;2023-01-29T14:18:24;98234.50;;;15.66;100.00
8697;BME280;4385;48.848;8.924;2023-01-29T14:20:53;98227.72;;;15.65;100.00
8697;BME280;4385;48.848;8.924;2023-01-29T14:23:35;98221.78;;;15.64;100.00
8697;BME280;4385;48.848;8.924;2023-01-29T14:26:16;98218.41;;;15.67;100.00
8697;BME280;4385;48.848;8.924;2023-01-29T14:28:51;98220.97;;;15.68;100.00
8697;BME280;4385;48.848;8.924;2023-01-29T14:33:59;98225.19;;;15.62;100.00
8697;BME280;4385;48.848;8.924;2023-01-29T14:36:25;98220.94;;;15.59;100.00
8697;BME280;4385;48.848;8.924;2023-01-29T14:38:52;98215.00;;;15.57;100.00
8697;BME280;4385;48.848;8.924;2023-01-29T14:41:28;98215.88;;;15.56;100.00
8697;BME280;4385;48.848;8.924;2023-01-29T14:46:58;98220.09;;;15.58;100.00
8697;BME280;4385;48.848;8.924;2023-01-29T14:52:13;98221.78;;;15.66;100.00
8697;BME280;4385;48.848;8.924;2023-01-29T14:54:40;98223.50;;;15.70;100.00